Time;durP1;ratioP1;P1;durP2;ratioP2;P2;SDS_P1;SDS_P2;PMS_P1;PMS_P2;Temp;Humidity;BMP_temperature;BMP_pressure;BME280_temperature;BME280_humidity;BME280_pressure;Samples;Min_cycle;Max_cycle;Signal;HPM_P1;HPM_P2
2023/01/10 00:01:44;;;;;;;14.18;4.00;;;;;;;4.19;100.00;100979.47;5054481;28;20439;-53
2023/01/10 00:04:13;;;;;;;14.98;3.47;;;;;;;4.18;100.00;100986.44;5056009;28;20527;-53
2023/01/10 00:06:42;;;;;;;18.23;3.30;;;;;;;4.14;100.00;100987.44;5056039;28;20037;-53
2023/01/10 00:09:11;;;;;;;11.38;3.08;;;;;;;4.12;100.00;100996.19;5055824;28;20099;-49
2023/01/10 00:14:27;;;;;;;15.93;3.38;;;;;;;4.13;100.00;101003.97;5056031;28;20053;-53
2023/01/10 00:16:56;;;;;;;13.68;3.08;;;;;;;4.10;100.00;101003.22;5055303;28;20068;-54
2023/01/10 00:19:26;;;;;;;15.18;3.70;;;;;;;4.14;100.00;101015.25;5052578;28;20044;-53
2023/01/10 00:22:12;;;;;;;14.65;2.63;;;;;;;4.13;100.00;101018.75;5053301;28;20041;-52
2023/01/10 00:24:41;;;;;;;12.90;2.78;;;;;;;4.17;100.00;101031.59;5052753;28;20563;-50
2023/01/10 00:27:11;;;;;;;11.70;2.53;;;;;;;4.19;100.00;101042.81;5051887;28;20047;-52
2023/01/10 00:29:40;;;;;;;13.20;2.90;;;;;;;4.20;100.00;101047.13;5055660;28;20071;-52
2023/01/10 00:32:08;;;;;;;12.68;2.53;;;;;;;4.25;100.00;101053.91;5055753;28;20045;-58
2023/01/10 00:34:36;;;;;;;18.27;3.30;;;;;;;4.24;100.00;101053.06;5053823;28;20053;-52
2023/01/10 00:37:05;;;;;;;13.25;2.63;;;;;;;4.27;100.00;101063.38;5052307;28;20047;-50
2023/01/10 00:39:34;;;;;;;12.82;3.33;;;;;;;4.27;100.00;101062.50;5054188;28;20120;-50
2023/01/10 00:44:47;;;;;;;12.30;3.33;;;;;;;4.30;100.00;101073.66;5054153;28;20052;-53
2023/01/10 00:47:16;;;;;;;12.00;3.13;;;;;;;4.31;100.00;101077.13;5055440;28;20037;-52
2023/01/10 00:49:44;;;;;;;12.25;2.88;;;;;;;4.30;100.00;101085.84;5052347;28;20045;-50
2023/01/10 00:52:14;;;;;;;16.17;3.38;;;;;;;4.28;100.00;101082.44;5051806;28;20044;-51
2023/01/10 00:54:42;;;;;;;10.13;2.70;;;;;;;4.27;100.00;101089.41;5055170;28;20511;-51
2023/01/10 00:57:10;;;;;;;8.68;2.50;;;;;;;4.26;100.00;101092.91;5055097;28;20098;-49
2023/01/10 00:59:38;;;;;;;10.48;2.58;;;;;;;4.25;100.00;101098.16;5054211;28;20049;-54
2023/01/10 01:02:09;;;;;;;15.60;3.65;;;;;;;4.19;100.00;101097.47;5055017;28;20099;-58
2023/01/10 01:04:37;;;;;;;19.38;2.70;;;;;;;4.19;100.00;101099.25;5054891;28;20057;-58
2023/01/10 01:07:05;;;;;;;10.98;2.45;;;;;;;4.20;100.00;101101.78;5054336;28;20037;-58
2023/01/10 01:10:25;;;;;;;20.10;2.65;;;;;;;4.20;100.00;101106.16;5050575;28;20114;-58
2023/01/10 01:12:22;;;;;;;10.07;2.53;;;;;;;4.17;100.00;101109.72;5053268;28;20060;-58
2023/01/10 01:14:53;;;;;;;16.15;2.97;;;;;;;4.16;100.00;101109.72;5054488;28;20041;-59
2023/01/10 01:17:21;;;;;;;14.05;3.40;;;;;;;4.16;100.00;101115.81;5054456;28;20114;-58
2023/01/10 01:19:52;;;;;;;11.98;2.80;;;;;;;4.16;100.00;101108.00;5054780;28;20041;-58
2023/01/10 01:22:20;;;;;;;15.10;3.35;;;;;;;4.14;100.00;101117.59;5054695;28;20057;-58
2023/01/10 01:24:49;;;;;;;7.80;2.40;;;;;;;4.10;100.00;101115.16;5052504;28;20575;-58
2023/01/10 01:27:18;;;;;;;12.88;2.38;;;;;;;4.10;100.00;101120.38;5051328;28;20116;-59
2023/01/10 01:29:46;;;;;;;10.40;2.60;;;;;;;4.11;100.00;101114.28;5054088;28;20045;-54
2023/01/10 01:32:14;;;;;;;14.30;3.15;;;;;;;4.09;100.00;101111.72;5054194;28;20052;-50
2023/01/10 01:34:43;;;;;;;15.68;2.90;;;;;;;4.04;100.00;101127.47;5054323;28;20423;-52
2023/01/10 01:37:11;;;;;;;17.73;3.00;;;;;;;4.03;100.00;101130.13;5054381;28;20072;-50
2023/01/10 01:39:41;;;;;;;13.27;2.22;;;;;;;4.02;100.00;101136.22;5054248;28;20118;-50
2023/01/10 01:42:22;;;;;;;11.82;2.30;;;;;;;4.00;100.00;101143.25;5050825;28;20057;-53
2023/01/10 01:45:31;;;;;;;11.80;2.33;;;;;;;4.05;100.00;101141.38;5051545;28;20128;-52
2023/01/10 01:48:03;;;;;;;11.30;2.20;;;;;;;4.03;100.00;101148.34;5054175;28;20450;-52
2023/01/10 01:50:36;;;;;;;13.00;2.40;;;;;;;4.03;100.00;101145.75;5053779;28;20057;-51
2023/01/10 01:53:10;;;;;;;15.68;3.03;;;;;;;4.06;100.00;101149.13;5053991;28;20045;-50
2023/01/10 01:55:39;;;;;;;13.80;2.95;;;;;;;4.06;100.00;101153.44;5052733;28;20060;-51
2023/01/10 01:58:15;;;;;;;14.05;2.35;;;;;;;4.05;100.00;101162.19;5052764;28;20080;-50
2023/01/10 02:00:44;;;;;;;11.05;2.42;;;;;;;4.05;100.00;101172.59;5050515;28;20056;-57
2023/01/10 02:03:14;;;;;;;12.18;2.63;;;;;;;4.00;100.00;101171.88;5049628;28;20095;-58
2023/01/10 02:05:44;;;;;;;17.35;2.45;;;;;;;4.04;100.00;101168.28;5054182;28;20496;-57
2023/01/10 02:08:13;;;;;;;14.80;2.90;;;;;;;4.00;100.00;101171.88;5052381;28;20542;-58
2023/01/10 02:10:47;;;;;;;13.90;2.40;;;;;;;4.01;100.00;101173.59;5050382;28;20118;-58
2023/01/10 02:13:20;;;;;;;8.70;2.20;;;;;;;3.99;100.00;101175.38;5052993;28;20119;-58
2023/01/10 02:15:48;;;;;;;12.35;2.08;;;;;;;3.96;100.00;101178.09;5052469;28;20052;-58
2023/01/10 02:18:17;;;;;;;14.55;3.78;;;;;;;3.92;100.00;101179.94;5053349;28;20044;-58
2023/01/10 02:21:18;;;;;;;11.10;2.47;;;;;;;3.92;100.00;101185.13;5053101;28;20087;-58
2023/01/10 02:24:23;;;;;;;10.20;2.25;;;;;;;3.94;100.00;101185.09;5053114;28;20049;-59
2023/01/10 02:27:26;;;;;;;11.48;1.85;;;;;;;3.91;100.00;101182.59;5033971;28;20560;-58
2023/01/10 02:30:41;;;;;;;13.63;2.50;;;;;;;3.90;100.00;101184.34;5052136;28;20057;-58
2023/01/10 02:33:21;;;;;;;12.45;2.00;;;;;;;3.87;100.00;101189.63;5048953;28;20045;-59
2023/01/10 02:36:10;;;;;;;9.23;2.33;;;;;;;3.93;100.00;101196.38;5052335;28;20110;-58
2023/01/10 02:38:56;;;;;;;11.68;2.45;;;;;;;3.92;100.00;101190.34;5053058;28;20094;-58
2023/01/10 02:41:31;;;;;;;9.27;2.10;;;;;;;3.91;100.00;101193.84;5050070;28;20992;-58
2023/01/10 02:44:04;;;;;;;15.23;2.22;;;;;;;3.96;100.00;101197.16;5051577;28;20471;-58
2023/01/10 02:46:35;;;;;;;13.05;1.75;;;;;;;4.00;100.00;101206.56;5051859;28;20053;-58
2023/01/10 02:49:05;;;;;;;14.80;2.45;;;;;;;4.06;100.00;101208.13;5053238;28;20053;-58
2023/01/10 02:51:33;;;;;;;13.68;2.35;;;;;;;4.06;100.00;101206.38;5051804;28;20095;-58
2023/01/10 02:54:08;;;;;;;14.73;2.40;;;;;;;4.09;100.00;101208.03;5049529;28;20372;-59
2023/01/10 02:57:07;;;;;;;10.52;2.00;;;;;;;4.10;100.00;101203.69;5051484;28;20052;-57
2023/01/10 03:00:23;;;;;;;10.23;2.10;;;;;;;4.15;100.00;101206.97;5049492;28;20136;-59
2023/01/10 03:03:08;;;;;;;16.88;2.53;;;;;;;4.16;100.00;101209.53;5049922;28;20057;-59
2023/01/10 03:05:51;;;;;;;15.57;3.20;;;;;;;4.17;100.00;101207.78;5049851;28;20095;-57
2023/01/10 03:08:27;;;;;;;12.48;2.25;;;;;;;4.18;100.00;101207.72;5051959;28;20106;-57
2023/01/10 03:10:59;;;;;;;12.60;2.40;;;;;;;4.21;100.00;101207.63;5049434;28;20073;-58
2023/01/10 03:13:35;;;;;;;14.82;2.63;;;;;;;4.23;100.00;101208.41;5051763;28;20056;-58
2023/01/10 03:16:07;;;;;;;11.55;2.38;;;;;;;4.21;100.00;101206.78;5051777;28;20052;-57
2023/01/10 03:18:42;;;;;;;11.18;2.20;;;;;;;4.21;100.00;101211.97;5048599;28;20041;-58
2023/01/10 03:21:13;;;;;;;16.52;2.72;;;;;;;4.23;100.00;101221.44;5050670;28;20040;-58
2023/01/10 03:23:41;;;;;;;13.48;2.80;;;;;;;4.24;100.00;101224.91;5050024;28;20075;-59
2023/01/10 03:26:11;;;;;;;14.90;2.47;;;;;;;4.27;100.00;101227.41;5049704;28;20052;-58
2023/01/10 03:28:48;;;;;;;19.75;4.22;;;;;;;4.25;100.00;101234.41;5051972;28;20045;-58
2023/01/10 03:31:21;;;;;;;15.82;2.90;;;;;;;4.27;100.00;101240.44;5052615;28;20048;-58
2023/01/10 03:33:50;;;;;;;10.75;2.20;;;;;;;4.26;100.00;101246.53;5050610;28;20053;-58
2023/01/10 03:36:31;;;;;;;14.38;2.40;;;;;;;4.26;100.00;101258.72;5048856;28;20167;-58
2023/01/10 03:39:07;;;;;;;10.18;2.55;;;;;;;4.26;100.00;101256.94;5052432;28;20353;-58
2023/01/10 03:41:40;;;;;;;16.52;3.17;;;;;;;4.26;100.00;101261.31;5052430;28;20110;-58
2023/01/10 03:47:05;;;;;;;13.52;3.40;;;;;;;4.26;100.00;101274.34;5052221;28;19931;-58
2023/01/10 03:49:37;;;;;;;15.23;3.03;;;;;;;4.23;100.00;101276.13;5052184;28;20041;-59
2023/01/10 03:52:09;;;;;;;14.50;2.97;;;;;;;4.21;100.00;101266.66;5050869;28;20527;-58
2023/01/10 03:54:37;;;;;;;15.93;3.58;;;;;;;4.20;100.00;101275.38;5049219;28;20068;-58
2023/01/10 03:57:06;;;;;;;11.70;2.45;;;;;;;4.20;100.00;101275.38;5050931;28;20068;-58
2023/01/10 03:59:34;;;;;;;14.77;3.42;;;;;;;4.20;100.00;101278.00;5051890;28;20095;-58
2023/01/10 04:02:02;;;;;;;10.02;2.70;;;;;;;4.15;100.00;101280.72;5047497;28;20071;-58
2023/01/10 04:04:31;;;;;;;13.88;3.20;;;;;;;4.12;100.00;101293.84;5049534;28;20073;-59
2023/01/10 04:06:59;;;;;;;17.73;3.10;;;;;;;4.14;100.00;101292.03;5052121;28;20132;-58
2023/01/10 04:09:28;;;;;;;11.00;2.80;;;;;;;4.15;100.00;101298.09;5050620;28;20120;-58
2023/01/10 04:11:57;;;;;;;16.95;3.55;;;;;;;4.18;100.00;101295.41;5048210;28;20044;-58
2023/01/10 04:14:26;;;;;;;21.95;4.22;;;;;;;4.19;100.00;101289.31;5050892;28;20496;-58
2023/01/10 04:16:54;;;;;;;16.15;3.40;;;;;;;4.21;100.00;101293.56;5052049;28;20048;-58
2023/01/10 04:19:25;;;;;;;19.23;4.40;;;;;;;4.22;100.00;101297.00;5051998;28;20044;-58
2023/01/10 04:21:53;;;;;;;14.80;3.88;;;;;;;4.25;100.00;101290.84;5052037;28;20118;-58
2023/01/10 04:24:21;;;;;;;13.73;3.92;;;;;;;4.25;100.00;101293.47;5049622;28;20457;-58
2023/01/10 04:26:51;;;;;;;18.88;3.95;;;;;;;4.20;100.00;101299.66;5046943;28;20438;-58
2023/01/10 04:29:19;;;;;;;14.20;3.92;;;;;;;4.24;100.00;101305.63;5051804;28;20045;-51
2023/01/10 04:31:47;;;;;;;17.88;3.50;;;;;;;4.23;100.00;101302.16;5051541;28;20462;-52
2023/01/10 04:34:16;;;;;;;16.60;5.82;;;;;;;4.21;100.00;101300.50;5051123;28;20053;-52
2023/01/10 04:36:44;;;;;;;18.02;4.55;;;;;;;4.19;100.00;101307.53;5054579;28;20045;-54
2023/01/10 04:39:12;;;;;;;17.95;4.15;;;;;;;4.21;100.00;101308.31;5055382;28;20473;-58
2023/01/10 04:41:40;;;;;;;17.70;4.10;;;;;;;4.22;100.00;101312.63;5054983;28;20079;-59
2023/01/10 04:44:10;;;;;;;14.70;4.50;;;;;;;4.21;100.00;101314.38;5052643;28;20114;-58
2023/01/10 04:46:38;;;;;;;15.18;3.88;;;;;;;4.18;100.00;101313.63;5052684;28;20418;-59
2023/01/10 04:49:06;;;;;;;18.58;4.90;;;;;;;4.20;100.00;101323.09;5055467;28;20156;-58
2023/01/10 04:51:34;;;;;;;18.88;5.13;;;;;;;4.20;100.00;101325.69;5055213;28;20049;-58
2023/01/10 04:54:02;;;;;;;18.80;4.28;;;;;;;4.17;100.00;101338.81;5055038;28;20515;-58
2023/01/10 04:56:30;;;;;;;14.50;4.30;;;;;;;4.16;100.00;101329.28;5055187;28;20147;-58
2023/01/10 04:58:58;;;;;;;20.65;5.15;;;;;;;4.19;100.00;101336.16;5055069;28;20051;-57
2023/01/10 05:01:27;;;;;;;16.27;4.15;;;;;;;4.19;100.00;101336.16;5054905;28;20056;-51
2023/01/10 05:03:56;;;;;;;16.65;3.83;;;;;;;4.21;100.00;101344.75;5054799;28;20400;-52
2023/01/10 05:06:25;;;;;;;24.75;4.75;;;;;;;4.21;100.00;101342.16;5054963;28;20047;-53
2023/01/10 05:08:53;;;;;;;19.67;4.50;;;;;;;4.26;100.00;101342.03;5054364;28;20471;-51
2023/01/10 05:11:21;;;;;;;12.27;3.97;;;;;;;4.25;100.00;101348.97;5051873;28;20049;-50
2023/01/10 05:13:49;;;;;;;20.23;4.82;;;;;;;4.28;100.00;101358.44;5052380;28;20435;-51
2023/01/10 05:16:17;;;;;;;17.92;3.72;;;;;;;4.29;100.00;101355.78;5054966;28;20060;-52
2023/01/10 05:18:47;;;;;;;16.30;3.58;;;;;;;4.32;100.00;101354.84;5054554;28;20148;-51
2023/01/10 05:21:16;;;;;;;20.25;4.53;;;;;;;4.34;100.00;101358.28;5054690;28;20447;-50
2023/01/10 05:23:44;;;;;;;21.15;4.10;;;;;;;4.39;100.00;101352.03;5054604;28;20500;-52
2023/01/10 05:26:14;;;;;;;16.95;4.40;;;;;;;4.41;100.00;101346.75;5054601;28;20052;-51
2023/01/10 05:28:43;;;;;;;17.08;3.85;;;;;;;4.41;100.00;101351.97;5054812;28;20033;-51
2023/01/10 05:31:13;;;;;;;15.45;3.42;;;;;;;4.45;100.00;101361.38;5054760;28;20037;-58
2023/01/10 05:33:45;;;;;;;15.57;4.30;;;;;;;4.48;100.00;101355.25;5050069;28;20095;-58
2023/01/10 05:36:20;;;;;;;17.27;4.22;;;;;;;4.52;100.00;101362.91;5052469;28;20389;-58
2023/01/10 05:38:49;;;;;;;17.65;4.25;;;;;;;4.56;100.00;101361.91;5054794;28;20094;-58
2023/01/10 05:41:17;;;;;;;21.98;3.85;;;;;;;4.56;100.00;101364.50;5054317;28;20053;-59
2023/01/10 05:43:45;;;;;;;19.63;4.20;;;;;;;4.61;100.00;101374.78;5054353;28;20114;-58
2023/01/10 05:46:13;;;;;;;18.30;3.63;;;;;;;4.61;100.00;101384.34;5054197;28;20060;-58
2023/01/10 05:48:41;;;;;;;18.65;4.18;;;;;;;4.63;100.00;101403.41;5053229;28;20045;-58
2023/01/10 05:51:09;;;;;;;20.23;4.60;;;;;;;4.64;100.00;101400.75;5053564;28;20106;-58
2023/01/10 05:53:39;;;;;;;25.17;4.20;;;;;;;4.66;100.00;101411.13;5054079;28;20073;-58
2023/01/10 05:56:07;;;;;;;20.60;3.90;;;;;;;4.68;100.00;101414.53;5053960;28;20056;-58
2023/01/10 05:58:36;;;;;;;21.33;3.45;;;;;;;4.67;100.00;101387.63;5053204;28;20378;-58
2023/01/10 06:01:04;;;;;;;18.23;4.03;;;;;;;4.72;100.00;101408.34;5051855;28;20127;-59
2023/01/10 06:03:32;;;;;;;19.98;3.95;;;;;;;4.67;100.00;101425.84;5049377;28;20129;-58
2023/01/10 06:06:02;;;;;;;19.65;3.47;;;;;;;4.66;100.00;101432.84;5051912;28;20048;-59
2023/01/10 06:08:30;;;;;;;22.65;5.50;;;;;;;4.63;100.00;101429.47;5054140;28;20056;-59
2023/01/10 06:10:59;;;;;;;13.02;3.30;;;;;;;4.65;100.00;101433.72;5054105;28;20045;-59
2023/01/10 06:13:27;;;;;;;19.80;3.60;;;;;;;4.65;100.00;101436.34;5053869;28;20553;-59
2023/01/10 06:15:55;;;;;;;18.17;3.58;;;;;;;4.69;100.00;101444.88;5053636;28;20040;-59
2023/01/10 06:18:23;;;;;;;15.27;4.25;;;;;;;4.66;100.00;101429.34;5052426;28;20068;-59
2023/01/10 06:20:52;;;;;;;23.50;3.97;;;;;;;4.67;100.00;101434.50;5053588;28;20045;-52
2023/01/10 06:23:20;;;;;;;15.88;4.15;;;;;;;4.68;100.00;101432.78;5053537;28;20063;-59
2023/01/10 06:25:48;;;;;;;23.75;4.10;;;;;;;4.65;100.00;101448.50;5052111;28;20048;-58
2023/01/10 06:28:18;;;;;;;17.63;4.72;;;;;;;4.67;100.00;101446.69;5053456;28;20106;-59
2023/01/10 06:30:48;;;;;;;24.65;5.22;;;;;;;4.65;100.00;101444.16;5053253;28;20124;-59
2023/01/10 06:33:16;;;;;;;21.33;6.05;;;;;;;4.64;100.00;101444.19;5051244;28;20041;-59
2023/01/10 06:35:45;;;;;;;19.80;4.75;;;;;;;4.66;100.00;101455.41;5049879;28;20714;-59
2023/01/10 06:38:13;;;;;;;25.13;4.47;;;;;;;4.62;100.00;101461.63;5052891;28;20102;-59
2023/01/10 06:40:42;;;;;;;23.05;4.13;;;;;;;4.61;100.00;101457.28;5052850;28;20132;-59
2023/01/10 06:43:10;;;;;;;16.13;3.80;;;;;;;4.64;100.00;101459.84;5053295;28;20392;-58
2023/01/10 06:45:40;;;;;;;22.35;4.20;;;;;;;4.61;100.00;101460.78;5053071;28;20057;-58
2023/01/10 06:48:08;;;;;;;17.13;3.78;;;;;;;4.54;100.00;101464.44;5053047;28;20139;-59
2023/01/10 06:50:36;;;;;;;21.73;4.70;;;;;;;4.55;100.00;101480.06;5052860;28;20093;-52
2023/01/10 06:53:05;;;;;;;19.52;4.05;;;;;;;4.59;100.00;101486.00;5051505;28;20526;-52
2023/01/10 06:55:33;;;;;;;18.80;4.57;;;;;;;4.59;100.00;101483.41;5051797;28;20057;-59
2023/01/10 06:58:03;;;;;;;19.08;4.05;;;;;;;4.60;100.00;101489.47;5052120;28;20155;-58
2023/01/10 07:00:32;;;;;;;16.60;3.13;;;;;;;4.62;100.00;101491.16;5050147;28;20057;-59
2023/01/10 07:03:02;;;;;;;25.17;4.85;;;;;;;4.65;100.00;101498.00;5047798;28;20057;-59
2023/01/10 07:05:30;;;;;;;19.75;4.78;;;;;;;4.70;100.00;101499.59;5052384;28;20102;-58
2023/01/10 07:08:00;;;;;;;21.83;3.75;;;;;;;4.67;100.00;101493.59;5052943;28;20095;-58
2023/01/10 07:10:28;;;;;;;19.10;3.65;;;;;;;4.69;100.00;101499.59;5052830;28;20094;-58
2023/01/10 07:12:57;;;;;;;21.13;3.47;;;;;;;4.69;100.00;101494.41;5052596;28;20124;-58
2023/01/10 07:15:25;;;;;;;20.27;4.18;;;;;;;4.66;100.00;101491.88;5052423;28;20053;-59
2023/01/10 07:17:56;;;;;;;20.60;4.57;;;;;;;4.66;100.00;101497.09;5052419;28;20056;-59
2023/01/10 07:20:26;;;;;;;21.13;4.70;;;;;;;4.66;100.00;101505.78;5052443;28;20055;-59
2023/01/10 07:22:55;;;;;;;20.75;3.58;;;;;;;4.68;100.00;101505.75;5052432;28;20381;-59
2023/01/10 07:25:23;;;;;;;22.65;3.85;;;;;;;4.64;100.00;101514.56;5052905;28;20502;-51
2023/01/10 07:27:54;;;;;;;20.25;4.00;;;;;;;4.67;100.00;101522.28;5052487;28;20106;-53
2023/01/10 07:30:23;;;;;;;21.42;3.47;;;;;;;4.70;100.00;101524.78;5049321;28;20041;-50
2023/01/10 07:32:56;;;;;;;20.60;3.33;;;;;;;4.72;100.00;101528.19;5048018;28;20045;-59
2023/01/10 07:35:26;;;;;;;16.03;4.10;;;;;;;4.72;100.00;101530.81;5052268;28;20057;-59
2023/01/10 07:37:58;;;;;;;19.60;3.55;;;;;;;4.71;100.00;101529.09;5052608;28;20480;-59
2023/01/10 07:40:26;;;;;;;20.75;3.22;;;;;;;4.77;100.00;101534.09;5052457;28;20071;-59
2023/01/10 07:42:56;;;;;;;23.55;3.95;;;;;;;4.81;100.00;101537.50;5051309;28;20496;-59
2023/01/10 07:45:25;;;;;;;18.42;3.92;;;;;;;4.82;100.00;101541.81;5048996;28;20057;-59
2023/01/10 07:47:57;;;;;;;21.88;3.97;;;;;;;4.83;100.00;101546.97;5048834;28;20063;-59
2023/01/10 07:50:28;;;;;;;18.98;3.45;;;;;;;4.83;100.00;101557.41;5052344;28;20069;-49
2023/01/10 07:52:58;;;;;;;21.85;3.97;;;;;;;4.84;100.00;101574.75;5052217;28;20049;-51
2023/01/10 07:55:27;;;;;;;20.67;3.67;;;;;;;4.84;100.00;101576.47;5052224;28;20059;-49
2023/01/10 07:57:55;;;;;;;18.60;3.78;;;;;;;4.81;100.00;101577.41;5052187;28;20079;-47
2023/01/10 08:00:24;;;;;;;23.70;3.60;;;;;;;4.83;100.00;101586.06;5052132;28;20392;-49
2023/01/10 08:02:54;;;;;;;19.50;3.58;;;;;;;4.79;100.00;101578.41;5052225;28;20095;-48
2023/01/10 08:05:23;;;;;;;19.45;3.70;;;;;;;4.81;100.00;101587.84;5052089;28;20052;-51
2023/01/10 08:07:55;;;;;;;19.13;3.85;;;;;;;4.76;100.00;101584.53;5051864;28;20080;-52
2023/01/10 08:10:24;;;;;;;19.30;3.97;;;;;;;4.77;100.00;101594.06;5053339;28;20072;-49
2023/01/10 08:12:52;;;;;;;20.38;3.65;;;;;;;4.72;100.00;101588.13;5051860;28;20509;-56
2023/01/10 08:15:26;;;;;;;17.65;3.63;;;;;;;4.74;100.00;101587.19;5054380;28;20384;-52
2023/01/10 08:17:54;;;;;;;19.60;3.40;;;;;;;4.79;100.00;101584.44;5055525;28;20056;-52
2023/01/10 08:20:22;;;;;;;20.98;3.58;;;;;;;4.80;100.00;101587.91;5055279;28;20388;-53
2023/01/10 08:22:52;;;;;;;21.58;4.95;;;;;;;4.81;100.00;101600.88;5055620;28;20053;-53
2023/01/10 08:25:20;;;;;;;19.90;3.92;;;;;;;4.78;100.00;101584.50;5055346;28;20132;-53
2023/01/10 08:27:48;;;;;;;20.52;3.17;;;;;;;4.82;100.00;101588.72;5053550;28;20049;-51
2023/01/10 08:30:17;;;;;;;19.75;3.67;;;;;;;4.85;100.00;101586.91;5052292;28;20385;-59
2023/01/10 08:32:45;;;;;;;19.20;4.55;;;;;;;4.96;100.00;101596.97;5052535;28;20076;-58
2023/01/10 08:35:14;;;;;;;21.70;3.38;;;;;;;4.96;100.00;101599.59;5054949;28;20107;-58
2023/01/10 08:37:42;;;;;;;20.58;3.63;;;;;;;4.94;100.00;101590.13;5087564;28;20071;-58
2023/01/10 08:40:12;;;;;;;20.67;4.30;;;;;;;4.97;100.00;101600.47;5055481;28;20053;-58
2023/01/10 08:42:41;;;;;;;18.23;3.38;;;;;;;4.91;100.00;101597.13;5055398;28;20045;-58
2023/01/10 08:45:10;;;;;;;19.83;3.80;;;;;;;4.99;100.00;101596.91;5055268;28;20049;-58
2023/01/10 08:47:38;;;;;;;18.10;3.67;;;;;;;4.94;100.00;101590.13;5050794;28;20132;-58
2023/01/10 08:50:06;;;;;;;16.42;3.53;;;;;;;4.93;100.00;101591.03;5052577;28;20053;-58
2023/01/10 08:52:35;;;;;;;22.42;3.30;;;;;;;4.97;100.00;101588.25;5055096;28;20054;-58
2023/01/10 08:55:03;;;;;;;16.60;2.92;;;;;;;5.00;100.00;101597.75;5052964;28;20045;-58
2023/01/10 08:57:32;;;;;;;17.73;3.47;;;;;;;5.09;100.00;101584.44;5051976;28;20090;-58
2023/01/10 09:00:01;;;;;;;16.67;2.97;;;;;;;5.10;100.00;101588.75;5054454;28;20512;-59
2023/01/10 09:02:29;;;;;;;22.23;3.50;;;;;;;5.16;100.00;101593.78;5055094;28;20416;-53
2023/01/10 09:04:59;;;;;;;23.10;3.70;;;;;;;5.13;100.00;101590.44;5054953;28;20095;-49
2023/01/10 09:07:27;;;;;;;16.67;3.13;;;;;;;5.15;100.00;101586.84;5055118;28;20095;-52
2023/01/10 09:09:55;;;;;;;19.13;3.40;;;;;;;5.21;100.00;101596.25;5054980;28;20044;-51
2023/01/10 09:15:11;;;;;;;24.80;3.42;;;;;;;5.16;100.00;101595.53;5054795;28;20086;-51
2023/01/10 09:17:40;;;;;;;17.20;3.20;;;;;;;5.11;100.00;101593.06;5053402;28;20056;-49
2023/01/10 09:20:10;;;;;;;22.65;3.47;;;;;;;5.08;100.00;101585.34;5054796;28;20053;-53
2023/01/10 09:22:42;;;;;;;23.30;4.18;;;;;;;5.12;100.00;101594.78;5054418;28;20076;-54
2023/01/10 09:25:10;;;;;;;18.20;3.40;;;;;;;5.14;100.00;101592.09;5051285;28;20503;-58
2023/01/10 09:27:38;;;;;;;24.35;4.50;;;;;;;5.05;100.00;101591.50;5050299;28;20053;-58
2023/01/10 09:30:07;;;;;;;20.83;3.55;;;;;;;5.15;100.00;101591.22;5052294;28;20829;-58
2023/01/10 09:32:37;;;;;;;22.98;4.03;;;;;;;5.15;100.00;101583.41;5049191;28;20068;-59
2023/01/10 09:35:06;;;;;;;15.68;3.55;;;;;;;5.16;100.00;101591.16;5053403;28;20072;-59
2023/01/10 09:37:34;;;;;;;23.50;4.03;;;;;;;5.19;100.00;101601.50;5054519;28;20552;-58
2023/01/10 09:40:02;;;;;;;20.45;3.97;;;;;;;5.22;100.00;101595.34;5054647;28;20569;-59
2023/01/10 09:42:42;;;;;;;24.10;4.18;;;;;;;5.27;100.00;101600.44;5054258;28;20045;-59
2023/01/10 09:45:17;;;;;;;21.30;3.63;;;;;;;5.30;100.00;101600.34;5054113;28;20064;-59
2023/01/10 09:47:53;;;;;;;24.60;4.03;;;;;;;5.32;100.00;101590.72;5054242;28;20041;-59
2023/01/10 09:50:31;;;;;;;21.58;3.80;;;;;;;5.33;100.00;101608.06;5053711;28;20052;-59
2023/01/10 09:53:09;;;;;;;23.77;4.15;;;;;;;5.35;100.00;101595.84;5053525;28;20049;-59
2023/01/10 09:55:39;;;;;;;21.65;3.70;;;;;;;5.39;100.00;101602.66;5054109;28;20037;-59
2023/01/10 09:58:13;;;;;;;17.13;3.50;;;;;;;5.42;100.00;101595.56;5050877;28;20072;-59
2023/01/10 10:00:48;;;;;;;15.73;3.75;;;;;;;5.42;100.00;101590.34;5050139;28;20151;-58
2023/01/10 10:03:29;;;;;;;20.10;4.18;;;;;;;5.42;100.00;101597.34;5053898;28;20044;-59
2023/01/10 10:05:58;;;;;;;22.60;3.83;;;;;;;5.37;100.00;101588.78;5053820;28;20045;-59
2023/01/10 10:08:39;;;;;;;28.05;3.80;;;;;;;5.43;100.00;101586.00;5049441;28;20137;-59
2023/01/10 10:11:34;;;;;;;19.05;3.50;;;;;;;5.49;100.00;101593.63;5050353;28;20053;-59
2023/01/10 10:14:11;;;;;;;19.65;3.95;;;;;;;5.49;100.00;101603.22;5051830;28;20048;-59
2023/01/10 10:16:55;;;;;;;17.38;3.28;;;;;;;5.46;100.00;101601.56;5048146;28;20056;-59
2023/01/10 10:19:36;;;;;;;19.00;3.85;;;;;;;5.42;100.00;101602.56;5053107;28;20048;-59
2023/01/10 10:22:12;;;;;;;21.02;3.88;;;;;;;5.45;100.00;101594.63;5053653;28;20499;-59
2023/01/10 10:24:51;;;;;;;21.27;3.28;;;;;;;5.43;100.00;101591.22;5053611;28;20029;-59
2023/01/10 10:27:23;;;;;;;17.67;3.70;;;;;;;5.42;100.00;101590.34;5053498;28;20053;-59
2023/01/10 10:30:17;;;;;;;22.70;3.70;;;;;;;5.42;100.00;101572.09;5053781;28;20456;-59
2023/01/10 10:33:11;;;;;;;24.20;3.83;;;;;;;5.45;100.00;101571.13;5050309;28;20566;-59
2023/01/10 10:35:45;;;;;;;22.48;4.55;;;;;;;5.44;100.00;101574.69;5050123;28;20056;-59
2023/01/10 10:38:19;;;;;;;14.77;3.70;;;;;;;5.44;100.00;101569.47;5053347;28;20041;-50
2023/01/10 10:40:49;;;;;;;23.13;5.10;;;;;;;5.46;100.00;101566.78;5053409;28;20048;-50
2023/01/10 10:43:20;;;;;;;22.13;4.63;;;;;;;5.46;100.00;101569.41;5053157;28;20103;-50
2023/01/10 10:45:54;;;;;;;20.95;4.47;;;;;;;5.41;100.00;101561.69;5053079;28;20049;-50
2023/01/10 10:48:26;;;;;;;22.45;4.63;;;;;;;5.44;100.00;101558.16;5053062;28;20044;-50
2023/01/10 10:51:04;;;;;;;17.55;3.13;;;;;;;5.49;100.00;101556.25;5053256;28;20061;-51
2023/01/10 10:53:33;;;;;;;18.05;3.70;;;;;;;5.50;100.00;101553.59;5051003;28;20047;-50
2023/01/10 10:56:04;;;;;;;22.38;3.65;;;;;;;5.50;100.00;101553.59;5049031;28;20045;-51
2023/01/10 10:58:33;;;;;;;20.05;4.32;;;;;;;5.56;100.00;101555.13;5051743;28;20049;-53
2023/01/10 11:01:01;;;;;;;15.32;4.35;;;;;;;5.56;100.00;101547.31;5051149;28;20540;-51
2023/01/10 11:03:38;;;;;;;16.20;3.28;;;;;;;5.55;100.00;101559.50;5052477;28;20044;-50
2023/01/10 11:06:09;;;;;;;19.52;3.33;;;;;;;5.47;100.00;101552.81;5051771;28;20052;-49
2023/01/10 11:08:41;;;;;;;22.45;4.38;;;;;;;5.51;100.00;101554.47;5052458;28;20049;-52
2023/01/10 11:11:19;;;;;;;19.83;3.47;;;;;;;5.54;100.00;101541.31;5048012;28;20102;-50
2023/01/10 11:13:52;;;;;;;21.90;4.25;;;;;;;5.57;100.00;101543.81;5049883;28;20508;-59
2023/01/10 11:16:26;;;;;;;18.83;3.92;;;;;;;5.66;100.00;101542.63;5052386;28;20063;-58
2023/01/10 11:19:14;;;;;;;16.38;3.88;;;;;;;5.65;100.00;101535.72;5052625;28;20049;-59
2023/01/10 11:21:49;;;;;;;17.42;3.75;;;;;;;5.64;100.00;101534.03;5052467;28;20426;-58
2023/01/10 11:24:27;;;;;;;20.95;3.83;;;;;;;5.67;100.00;101523.47;5051892;28;20041;-59
2023/01/10 11:27:01;;;;;;;21.42;3.55;;;;;;;5.57;100.00;101523.78;5048700;28;20075;-59
2023/01/10 11:29:38;;;;;;;20.75;3.55;;;;;;;5.68;100.00;101515.59;5051002;28;20132;-59
2023/01/10 11:32:14;;;;;;;18.05;3.65;;;;;;;5.63;100.00;101521.88;5052320;28;20041;-59
2023/01/10 11:34:48;;;;;;;17.30;3.20;;;;;;;5.65;100.00;101518.31;5052506;28;20110;-59
2023/01/10 11:37:27;;;;;;;20.90;3.72;;;;;;;5.63;100.00;101516.66;5050796;28;20524;-59
2023/01/10 11:40:22;;;;;;;19.63;3.03;;;;;;;5.64;100.00;101520.97;5048585;28;20126;-59
2023/01/10 11:42:53;;;;;;;16.33;3.10;;;;;;;5.67;100.00;101523.47;5050109;28;20144;-58
2023/01/10 11:45:30;;;;;;;18.27;3.28;;;;;;;5.69;100.00;101517.28;5080377;28;20060;-59
2023/01/10 11:48:07;;;;;;;20.15;3.88;;;;;;;5.82;100.00;101516.88;5049054;28;20057;-47
2023/01/10 11:50:37;;;;;;;23.15;3.88;;;;;;;5.88;100.00;101512.28;5052035;28;20080;-51